createdAt,value
2023-03-02T00:02:19.264Z,9.27
2023-03-02T00:04:51.983Z,7.63
2023-03-02T00:07:25.467Z,7.35
2023-03-02T00:09:56.068Z,7.63
2023-03-02T00:12:25.884Z,7.13
2023-03-02T00:14:55.425Z,7.57
2023-03-02T00:17:28.892Z,8.63
2023-03-02T00:20:10.406Z,8.30
2023-03-02T00:22:39.920Z,8.52
2023-03-02T00:25:11.264Z,9.30
2023-03-02T00:27:40.905Z,8.75
2023-03-02T00:30:12.395Z,10.45
2023-03-02T00:32:43.425Z,9.73
2023-03-02T00:35:13.133Z,10.00
2023-03-02T00:37:42.423Z,9.35
2023-03-02T00:40:12.888Z,8.95
2023-03-02T00:42:42.449Z,8.45
2023-03-02T00:45:12.519Z,8.98
2023-03-02T00:47:43.718Z,8.30
2023-03-02T00:50:13.521Z,9.50
2023-03-02T00:52:42.941Z,8.23
2023-03-02T00:55:12.610Z,8.50
2023-03-02T00:57:41.901Z,8.60
2023-03-02T01:00:12.640Z,8.20
2023-03-02T01:02:44.803Z,8.55
2023-03-02T01:05:18.979Z,8.88
2023-03-02T01:07:49.638Z,7.47
2023-03-02T01:10:19.190Z,8.55
2023-03-02T01:12:48.483Z,8.88
2023-03-02T01:15:17.998Z,8.27
2023-03-02T01:17:48.596Z,8.38
2023-03-02T01:20:19.418Z,7.72
2023-03-02T01:22:48.870Z,7.65
2023-03-02T01:25:18.500Z,8.07
2023-03-02T01:27:47.765Z,7.47
2023-03-02T01:30:18.761Z,7.35
2023-03-02T01:32:49.475Z,8.60
2023-03-02T01:35:19.205Z,8.18
2023-03-02T01:37:48.570Z,7.47
2023-03-02T01:40:18.085Z,7.90
2023-03-02T01:42:58.244Z,8.82
2023-03-02T01:45:47.895Z,8.07
2023-03-02T01:48:28.841Z,7.10
2023-03-02T01:50:59.959Z,7.15
2023-03-02T01:53:33.313Z,7.10
2023-03-02T01:56:05.806Z,8.30
2023-03-02T01:58:37.973Z,7.78
2023-03-02T02:01:15.461Z,7.47
2023-03-02T02:03:49.270Z,7.68
2023-03-02T02:06:24.713Z,9.25
2023-03-02T02:08:57.505Z,10.00
2023-03-02T02:11:27.201Z,9.48
2023-03-02T02:13:59.486Z,9.13
2023-03-02T02:16:30.786Z,9.23
2023-03-02T02:19:02.593Z,8.95
2023-03-02T02:21:32.854Z,9.07
2023-03-02T02:24:11.120Z,9.65
2023-03-02T02:26:45.850Z,7.78
2023-03-02T02:29:39.240Z,8.55
2023-03-02T02:32:46.344Z,7.15
2023-03-02T02:35:45.297Z,8.65
2023-03-02T02:38:21.820Z,10.40
2023-03-02T02:40:56.577Z,8.48
2023-03-02T02:43:33.787Z,8.57
2023-03-02T02:46:04.183Z,8.00
2023-03-02T02:48:35.380Z,6.47
2023-03-02T02:51:07.323Z,7.47
2023-03-02T02:53:43.969Z,8.57
2023-03-02T02:56:14.430Z,9.13
2023-03-02T02:58:52.177Z,7.97
2023-03-02T03:01:26.282Z,8.15
2023-03-02T03:04:01.961Z,9.15
2023-03-02T03:06:38.593Z,6.82
2023-03-02T03:09:09.818Z,7.03
2023-03-02T03:11:46.325Z,7.05
2023-03-02T03:14:19.892Z,5.88
2023-03-02T03:16:53.409Z,6.10
2023-03-02T03:19:25.456Z,5.60
2023-03-02T03:21:57.524Z,6.38
2023-03-02T03:24:29.958Z,5.25
2023-03-02T03:27:01.561Z,5.75
2023-03-02T03:29:34.878Z,5.35
2023-03-02T03:37:01.880Z,5.88
2023-03-02T03:39:35.958Z,6.00
2023-03-02T03:42:07.024Z,6.28
2023-03-02T03:44:38.140Z,5.43
2023-03-02T03:47:08.208Z,5.30
2023-03-02T03:49:37.862Z,5.30
2023-03-02T03:52:09.101Z,5.38
2023-03-02T03:54:38.670Z,4.90
2023-03-02T03:57:12.252Z,6.05
2023-03-02T03:59:43.511Z,5.80
2023-03-02T04:02:13.269Z,5.63
2023-03-02T04:04:46.385Z,5.22
2023-03-02T04:07:19.587Z,5.65
2023-03-02T04:09:49.552Z,5.72
2023-03-02T04:12:19.478Z,4.57
2023-03-02T04:14:54.502Z,5.22
2023-03-02T04:17:24.308Z,5.47
2023-03-02T04:19:53.884Z,5.45
2023-03-02T04:22:23.819Z,5.35
2023-03-02T04:24:54.153Z,5.47
2023-03-02T04:27:24.083Z,4.15
2023-03-02T04:29:54.783Z,5.80
2023-03-02T04:32:24.534Z,4.85
2023-03-02T04:34:57.169Z,5.53
2023-03-02T04:37:27.998Z,5.70
2023-03-02T04:39:57.630Z,4.63
2023-03-02T04:42:27.164Z,6.20
2023-03-02T04:44:58.106Z,5.65
2023-03-02T04:47:28.074Z,5.22
2023-03-02T04:49:57.664Z,4.38
2023-03-02T04:52:27.205Z,4.70
2023-03-02T04:54:56.701Z,4.53
2023-03-02T04:57:26.503Z,5.45
2023-03-02T04:59:57.664Z,5.25
2023-03-02T05:02:27.435Z,5.65
2023-03-02T05:04:56.757Z,4.72
2023-03-02T05:07:26.282Z,5.03
2023-03-02T05:09:55.769Z,4.40
2023-03-02T05:12:25.380Z,4.78
2023-03-02T05:14:54.566Z,4.15
2023-03-02T05:17:25.528Z,3.88
2023-03-02T05:19:54.822Z,3.35
2023-03-02T05:22:24.371Z,4.05
2023-03-02T05:24:53.634Z,4.10
2023-03-02T05:27:23.224Z,4.50
2023-03-02T05:29:52.564Z,3.83
2023-03-02T05:32:22.183Z,3.70
2023-03-02T05:34:52.979Z,3.38
2023-03-02T05:37:22.549Z,4.10
2023-03-02T05:39:51.939Z,3.70
2023-03-02T05:42:21.494Z,3.90
2023-03-02T05:44:50.799Z,3.58
2023-03-02T05:47:20.446Z,3.47
2023-03-02T05:49:51.031Z,4.10
2023-03-02T05:52:20.646Z,4.00
2023-03-02T05:54:49.956Z,3.13
2023-03-02T05:57:19.752Z,3.33
2023-03-02T05:59:51.033Z,3.20
2023-03-02T06:02:21.035Z,3.88
2023-03-02T06:04:51.753Z,3.45
2023-03-02T06:07:21.364Z,3.70
2023-03-02T06:09:51.171Z,3.13
2023-03-02T06:12:21.367Z,3.70
2023-03-02T06:14:50.838Z,4.22
2023-03-02T06:17:20.513Z,3.42
2023-03-02T06:19:51.181Z,4.15
2023-03-02T06:22:20.869Z,3.47
2023-03-02T06:24:50.154Z,3.67
2023-03-02T06:27:19.660Z,3.90
2023-03-02T06:29:49.049Z,4.20
2023-03-02T06:32:18.924Z,4.50
2023-03-02T06:34:48.312Z,3.33
2023-03-02T06:37:19.607Z,3.67
2023-03-02T06:39:48.858Z,2.83
2023-03-02T06:42:18.533Z,2.88
2023-03-02T06:44:48.503Z,3.72
2023-03-02T06:47:18.881Z,3.13
2023-03-02T06:49:48.371Z,3.58
2023-03-02T06:52:19.611Z,4.28
2023-03-02T06:54:49.245Z,3.85
2023-03-02T06:57:19.925Z,4.00
2023-03-02T06:59:49.187Z,3.50
2023-03-02T07:02:18.833Z,3.45
2023-03-02T07:04:48.156Z,3.67
2023-03-02T07:07:19.243Z,4.13
2023-03-02T07:09:48.750Z,3.92
2023-03-02T07:12:18.336Z,3.92
2023-03-02T07:14:47.806Z,3.53
2023-03-02T07:17:17.375Z,4.70
2023-03-02T07:19:46.971Z,4.38
2023-03-02T07:22:16.506Z,4.68
2023-03-02T07:24:47.218Z,4.50
2023-03-02T07:27:19.984Z,4.18
2023-03-02T07:30:40.273Z,4.22
2023-03-02T07:33:10.610Z,4.18
2023-03-02T07:35:40.235Z,4.20
2023-03-02T07:38:10.081Z,4.25
2023-03-02T07:40:47.049Z,5.25
2023-03-02T07:43:22.955Z,4.40
2023-03-02T07:45:59.549Z,4.47
2023-03-02T07:48:33.605Z,4.00
2023-03-02T07:51:07.917Z,3.97
2023-03-02T07:53:38.814Z,4.57
2023-03-02T07:56:11.771Z,4.32
2023-03-02T07:58:41.366Z,5.07
2023-03-02T08:01:10.865Z,5.38
2023-03-02T08:03:40.453Z,4.07
2023-03-02T08:06:11.750Z,6.00
2023-03-02T08:08:41.535Z,4.75
2023-03-02T08:11:14.124Z,4.68
2023-03-02T08:13:49.695Z,3.78
2023-03-02T08:16:19.464Z,4.82
2023-03-02T08:18:49.468Z,5.85
2023-03-02T08:21:20.843Z,5.10
2023-03-02T08:23:50.753Z,5.63
2023-03-02T08:26:22.319Z,5.18
2023-03-02T08:28:52.088Z,5.85
2023-03-02T08:31:21.596Z,4.90
2023-03-02T08:33:51.212Z,5.68
2023-03-02T08:36:21.794Z,5.47
2023-03-02T08:38:51.971Z,5.47
2023-03-02T08:41:24.588Z,5.00
2023-03-02T08:43:54.550Z,5.13
2023-03-02T08:46:24.371Z,4.93
2023-03-02T08:48:54.022Z,5.15
2023-03-02T08:51:25.178Z,5.70
2023-03-02T08:53:56.704Z,5.45
2023-03-02T08:56:38.609Z,4.90
2023-03-02T08:59:17.303Z,5.43
2023-03-02T09:01:50.370Z,5.45
2023-03-02T09:04:29.785Z,5.60
2023-03-02T09:07:01.099Z,5.25
2023-03-02T09:09:30.924Z,4.88
2023-03-02T09:12:02.629Z,6.28
2023-03-02T09:14:32.172Z,5.72
2023-03-02T09:17:01.644Z,5.78
2023-03-02T09:19:31.276Z,4.95
2023-03-02T09:22:00.763Z,5.07
2023-03-02T09:24:30.986Z,4.90
2023-03-02T09:27:01.862Z,5.07
2023-03-02T09:29:31.438Z,4.85
2023-03-02T09:32:01.370Z,5.00
2023-03-02T09:34:31.165Z,4.75
2023-03-02T09:37:00.632Z,4.25
2023-03-02T09:39:30.364Z,3.92
2023-03-02T09:42:42.934Z,3.85
2023-03-02T09:45:37.250Z,3.90
2023-03-02T09:48:16.093Z,3.38
2023-03-02T09:50:57.217Z,4.03
2023-03-02T09:53:38.436Z,3.83
2023-03-02T09:56:17.158Z,3.63
2023-03-02T09:58:56.188Z,3.88
2023-03-02T10:01:37.308Z,3.70
2023-03-02T10:04:16.449Z,3.50
2023-03-02T10:06:47.131Z,3.53
2023-03-02T10:09:16.619Z,3.17
2023-03-02T10:12:05.218Z,4.07
2023-03-02T10:14:42.774Z,3.42
2023-03-02T10:17:31.473Z,3.42
2023-03-02T10:20:06.017Z,3.70
2023-03-02T10:22:39.863Z,2.78
2023-03-02T10:25:23.408Z,2.80
2023-03-02T10:27:57.715Z,3.33
2023-03-02T10:30:33.192Z,3.20
2023-03-02T10:33:10.993Z,3.05
2023-03-02T10:35:45.268Z,3.55
2023-03-02T10:38:16.933Z,3.42
2023-03-02T10:40:50.056Z,3.45
2023-03-02T10:43:22.134Z,3.33
2023-03-02T10:46:03.028Z,4.25
2023-03-02T10:48:32.734Z,3.50
2023-03-02T10:51:02.343Z,3.20
2023-03-02T10:53:31.983Z,3.33
2023-03-02T10:56:01.404Z,3.15
2023-03-02T10:58:33.867Z,3.10
2023-03-02T11:01:07.292Z,3.20
2023-03-02T11:03:36.910Z,3.20
2023-03-02T11:06:20.608Z,2.92
2023-03-02T11:09:01.066Z,2.67
2023-03-02T11:11:30.930Z,3.40
2023-03-02T11:14:10.513Z,4.20
2023-03-02T11:16:41.182Z,3.45
2023-03-02T11:19:16.678Z,3.45
2023-03-02T11:21:55.017Z,3.53
2023-03-02T11:24:31.309Z,3.40
2023-03-02T11:27:07.994Z,3.60
2023-03-02T11:29:43.195Z,3.88
2023-03-02T11:32:19.156Z,3.55
2023-03-02T11:34:53.328Z,3.38
2023-03-02T11:37:24.410Z,3.80
2023-03-02T11:40:06.313Z,3.30
2023-03-02T11:42:37.913Z,3.30
2023-03-02T11:45:20.683Z,3.10
2023-03-02T11:48:02.425Z,2.72
2023-03-02T11:50:35.548Z,3.10
2023-03-02T11:53:09.071Z,2.40
2023-03-02T11:55:45.693Z,2.90
2023-03-02T11:58:20.747Z,2.30
2023-03-02T12:00:52.206Z,2.13
2023-03-02T12:03:36.919Z,2.30
2023-03-02T12:06:08.810Z,2.70
2023-03-02T12:08:41.178Z,2.50
2023-03-02T12:11:34.714Z,2.20
2023-03-02T12:14:05.643Z,2.70
2023-03-02T12:16:41.037Z,2.55
2023-03-02T12:19:26.644Z,2.15
2023-03-02T12:22:02.213Z,2.28
2023-03-02T12:24:33.597Z,2.17
2023-03-02T12:27:05.843Z,2.20
2023-03-02T12:29:43.118Z,2.85
2023-03-02T12:32:15.395Z,2.70
2023-03-02T12:34:54.391Z,2.80
2023-03-02T12:37:28.610Z,3.22
2023-03-02T12:40:31.216Z,2.88
2023-03-02T12:43:26.807Z,3.45
2023-03-02T12:46:23.036Z,3.38
2023-03-02T12:49:05.342Z,3.83
2023-03-02T12:51:52.246Z,3.83
2023-03-02T12:54:24.408Z,4.10
2023-03-02T12:57:09.011Z,3.85
2023-03-02T12:59:38.692Z,4.07
2023-03-02T13:02:19.715Z,4.40
2023-03-02T13:04:55.709Z,3.95
2023-03-02T13:07:28.840Z,3.90
2023-03-02T13:10:00.993Z,4.40
2023-03-02T13:12:30.869Z,4.30
2023-03-02T13:15:01.360Z,4.45
2023-03-02T13:17:33.260Z,4.18
2023-03-02T13:20:06.249Z,3.75
2023-03-02T13:22:37.162Z,4.60
2023-03-02T13:25:21.767Z,3.70
2023-03-02T13:27:54.621Z,4.20
2023-03-02T13:32:59.628Z,3.10
2023-03-02T13:35:31.353Z,3.50
2023-03-02T13:38:07.354Z,4.43
2023-03-02T13:40:44.866Z,3.78
2023-03-02T13:43:32.028Z,3.20
2023-03-02T13:46:03.883Z,3.33
2023-03-02T13:48:34.082Z,3.03
2023-03-02T13:51:15.410Z,3.40
2023-03-02T13:53:52.873Z,3.90
2023-03-02T13:56:26.138Z,3.30
2023-03-02T13:58:55.456Z,3.03
2023-03-02T14:01:25.414Z,3.63
2023-03-02T14:03:56.452Z,3.60
2023-03-02T14:06:27.006Z,3.17
2023-03-02T14:08:57.772Z,3.55
2023-03-02T14:11:28.316Z,3.13
2023-03-02T14:13:57.795Z,3.00
2023-03-02T14:16:28.173Z,3.17
2023-03-02T14:18:57.766Z,3.22
2023-03-02T14:21:28.164Z,3.00
2023-03-02T14:23:59.669Z,3.47
2023-03-02T14:26:34.795Z,3.40
2023-03-02T14:29:09.018Z,4.07
2023-03-02T14:31:38.577Z,3.95
2023-03-02T14:34:07.893Z,3.97
2023-03-02T14:36:38.442Z,7.80
2023-03-02T14:39:21.241Z,3.42
2023-03-02T14:41:54.091Z,2.92
2023-03-02T14:44:24.227Z,3.55
2023-03-02T14:46:54.336Z,3.80
2023-03-02T14:49:23.839Z,4.90
2023-03-02T14:52:00.468Z,4.75
2023-03-02T14:54:37.718Z,4.60
2023-03-02T14:57:14.612Z,3.70
2023-03-02T14:59:44.033Z,3.50
2023-03-02T15:02:24.681Z,4.15
2023-03-02T15:04:56.201Z,5.18
2023-03-02T15:07:28.437Z,5.30
2023-03-02T15:09:59.822Z,5.10
2023-03-02T15:12:29.451Z,5.53
2023-03-02T15:14:59.011Z,5.65
2023-03-02T15:17:28.792Z,6.25
2023-03-02T15:19:58.561Z,9.63
2023-03-02T15:22:28.312Z,9.38
2023-03-02T15:24:59.258Z,7.50
2023-03-02T15:27:28.975Z,7.00
2023-03-02T15:29:58.286Z,8.60
2023-03-02T15:32:28.007Z,7.85
2023-03-02T15:34:57.538Z,5.90
2023-03-02T15:37:28.351Z,5.72
2023-03-02T15:40:00.340Z,7.32
2023-03-02T15:42:29.984Z,6.88
2023-03-02T15:44:59.444Z,7.22
2023-03-02T15:47:29.210Z,7.05
2023-03-02T15:49:58.544Z,8.10
2023-03-02T15:52:28.726Z,7.82
2023-03-02T15:54:59.600Z,7.55
2023-03-02T15:57:31.827Z,8.68
2023-03-02T16:00:02.123Z,9.65
2023-03-02T16:02:37.551Z,9.32
2023-03-02T16:05:07.721Z,10.30
2023-03-02T16:07:38.212Z,9.20
2023-03-02T16:10:15.331Z,9.63
2023-03-02T16:12:46.770Z,10.50
2023-03-02T16:15:16.354Z,10.68
2023-03-02T16:17:48.474Z,9.93
2023-03-02T16:20:18.117Z,10.45
2023-03-02T16:22:48.186Z,11.95
2023-03-02T16:25:19.127Z,13.25
2023-03-02T16:27:50.068Z,12.27
2023-03-02T16:30:21.969Z,12.38
2023-03-02T16:32:52.835Z,10.98
2023-03-02T16:35:22.058Z,12.85
2023-03-02T16:37:51.787Z,11.55
2023-03-02T16:40:22.950Z,14.02
2023-03-02T16:42:52.687Z,14.80
2023-03-02T16:45:23.124Z,11.20
2023-03-02T16:47:52.701Z,11.68
2023-03-02T16:50:22.310Z,11.15
2023-03-02T16:52:51.948Z,11.13
2023-03-02T16:55:22.760Z,11.32
2023-03-02T16:57:52.467Z,10.48
2023-03-02T17:00:23.571Z,11.77
2023-03-02T17:02:54.671Z,11.10
2023-03-02T17:05:24.829Z,11.00
2023-03-02T17:07:57.055Z,12.35
2023-03-02T17:10:28.492Z,13.52
2023-03-02T17:12:58.037Z,14.48
2023-03-02T17:15:27.497Z,14.32
2023-03-02T17:17:57.212Z,13.32
2023-03-02T17:20:26.904Z,13.18
2023-03-02T17:22:56.795Z,13.98
2023-03-02T17:25:27.738Z,12.70
2023-03-02T17:27:57.488Z,13.77
2023-03-02T17:30:26.871Z,13.68
2023-03-02T17:32:56.492Z,12.85
2023-03-02T17:35:25.849Z,13.00
2023-03-02T17:37:55.565Z,13.90
2023-03-02T17:40:25.135Z,13.63
2023-03-02T17:42:57.830Z,14.13
2023-03-02T17:45:29.173Z,14.48
2023-03-02T17:47:59.828Z,14.55
2023-03-02T17:50:31.926Z,14.65
2023-03-02T17:53:02.292Z,14.73
2023-03-02T17:55:31.696Z,15.38
2023-03-02T17:58:02.635Z,15.70
2023-03-02T18:00:32.265Z,15.27
2023-03-02T18:03:02.055Z,18.27
2023-03-02T18:05:31.588Z,17.58
2023-03-02T18:08:01.325Z,18.90
2023-03-02T18:10:30.684Z,16.73
2023-03-02T18:13:01.686Z,18.50
2023-03-02T18:15:31.571Z,16.65
2023-03-02T18:18:01.591Z,17.73
2023-03-02T18:20:31.168Z,16.52
2023-03-02T18:23:00.919Z,16.35
2023-03-02T18:25:30.537Z,15.75
2023-03-02T18:28:03.708Z,17.88
2023-03-02T18:30:36.138Z,18.23
2023-03-02T18:33:05.947Z,18.27
2023-03-02T18:35:35.803Z,16.90
2023-03-02T18:38:05.497Z,16.88
2023-03-02T18:40:35.073Z,16.52
2023-03-02T18:43:06.296Z,20.08
2023-03-02T18:45:35.770Z,18.20
2023-03-02T18:48:06.222Z,17.02
2023-03-02T18:50:35.634Z,20.88
2023-03-02T18:53:05.423Z,18.65
2023-03-02T18:55:34.931Z,17.63
2023-03-02T18:58:05.926Z,17.05
2023-03-02T19:00:37.803Z,14.40
2023-03-02T19:03:07.439Z,17.27
2023-03-02T19:05:36.923Z,16.42
2023-03-02T19:08:08.006Z,15.93
2023-03-02T19:10:38.546Z,16.85
2023-03-02T19:13:11.685Z,15.20
2023-03-02T19:15:41.400Z,16.17
2023-03-02T19:18:16.244Z,15.80
2023-03-02T19:20:47.499Z,15.25
2023-03-02T19:23:18.363Z,16.02
2023-03-02T19:25:48.325Z,14.98
2023-03-02T19:28:19.377Z,14.65
2023-03-02T19:30:48.899Z,14.73
2023-03-02T19:33:19.517Z,14.70
2023-03-02T19:35:48.956Z,16.60
2023-03-02T19:38:19.352Z,22.17
2023-03-02T19:40:49.187Z,19.65
2023-03-02T19:43:20.433Z,18.45
2023-03-02T19:45:50.159Z,17.33
2023-03-02T19:48:20.023Z,17.60
2023-03-02T19:50:50.082Z,18.42
2023-03-02T19:53:19.774Z,19.23
2023-03-02T19:55:51.512Z,16.77
2023-03-02T19:58:23.611Z,15.95
2023-03-02T20:00:53.256Z,15.70
2023-03-02T20:03:22.981Z,16.63
2023-03-02T20:05:52.795Z,17.45
2023-03-02T20:08:22.849Z,18.13
2023-03-02T20:10:52.509Z,18.35
2023-03-02T20:13:26.018Z,19.65
2023-03-02T20:15:56.550Z,18.52
2023-03-02T20:18:27.540Z,18.13
2023-03-02T20:20:57.222Z,18.88
2023-03-02T20:23:27.500Z,17.95
2023-03-02T20:25:56.769Z,20.25
2023-03-02T20:28:28.103Z,19.35
2023-03-02T20:30:59.795Z,18.40
2023-03-02T20:33:33.048Z,16.92
2023-03-02T20:36:04.125Z,16.98
2023-03-02T20:38:36.830Z,16.13
2023-03-02T20:41:06.968Z,15.30
2023-03-02T20:43:38.235Z,18.90
2023-03-02T20:46:10.068Z,16.92
2023-03-02T20:48:40.134Z,17.90
2023-03-02T20:51:09.489Z,17.70
2023-03-02T20:53:39.058Z,16.40
2023-03-02T20:56:08.697Z,18.88
2023-03-02T20:58:41.310Z,17.27
2023-03-02T21:01:10.834Z,17.52
2023-03-02T21:03:41.207Z,15.35
2023-03-02T21:06:11.422Z,16.60
2023-03-02T21:08:41.666Z,19.80
2023-03-02T21:11:15.722Z,17.25
2023-03-02T21:13:49.154Z,17.38
2023-03-02T21:16:22.853Z,17.02
2023-03-02T21:18:52.594Z,16.77
2023-03-02T21:21:32.498Z,16.88
2023-03-02T21:24:05.728Z,17.40
2023-03-02T21:26:36.536Z,17.38
2023-03-02T21:29:09.532Z,15.85
2023-03-02T21:31:39.139Z,17.70
2023-03-02T21:34:08.844Z,16.55
2023-03-02T21:36:38.272Z,16.88
2023-03-02T21:39:08.418Z,15.82
2023-03-02T21:41:38.076Z,16.95
2023-03-02T21:44:09.202Z,15.85
2023-03-02T21:46:39.787Z,17.10
2023-03-02T21:49:09.805Z,15.90
2023-03-02T21:51:39.196Z,18.00
2023-03-02T21:54:09.226Z,16.27
2023-03-02T21:56:38.735Z,16.95
2023-03-02T21:59:09.931Z,16.70
2023-03-02T22:01:39.421Z,15.85
2023-03-02T22:04:09.451Z,21.02
2023-03-02T22:06:38.818Z,17.40
2023-03-02T22:09:08.355Z,23.00
2023-03-02T22:11:39.237Z,23.02
2023-03-02T22:14:14.769Z,19.17
2023-03-02T22:16:47.534Z,17.90
2023-03-02T22:19:29.291Z,17.17
2023-03-02T22:22:00.192Z,19.77
2023-03-02T22:24:31.521Z,16.60
2023-03-02T22:27:03.112Z,19.45
2023-03-02T22:29:39.334Z,14.63
2023-03-02T22:32:19.025Z,15.68
2023-03-02T22:34:51.359Z,18.92
2023-03-02T22:37:22.384Z,16.77
2023-03-02T22:39:55.677Z,14.50
2023-03-02T22:42:27.044Z,15.80
2023-03-02T22:45:12.981Z,17.35
2023-03-02T22:47:42.622Z,16.38
2023-03-02T22:50:22.076Z,18.42
2023-03-02T22:52:52.009Z,16.98
2023-03-02T22:55:36.871Z,19.58
2023-03-02T22:58:31.022Z,18.13
2023-03-02T23:01:03.254Z,18.27
2023-03-02T23:03:39.967Z,16.25
2023-03-02T23:06:31.527Z,16.80
2023-03-02T23:09:03.203Z,17.92
2023-03-02T23:11:37.679Z,19.98
2023-03-02T23:14:19.131Z,15.95
2023-03-02T23:16:53.872Z,15.95
2023-03-02T23:19:23.734Z,17.23
2023-03-02T23:21:53.388Z,16.88
2023-03-02T23:24:22.713Z,15.60
2023-03-02T23:26:54.046Z,16.27
2023-03-02T23:29:23.604Z,15.73
2023-03-02T23:31:54.716Z,14.90
2023-03-02T23:34:24.548Z,16.95
2023-03-02T23:36:54.091Z,16.58
2023-03-02T23:39:23.422Z,15.10
2023-03-02T23:41:53.065Z,16.35
2023-03-02T23:44:22.414Z,14.63
2023-03-02T23:46:53.583Z,13.93
2023-03-02T23:49:22.860Z,14.55
2023-03-02T23:51:52.696Z,14.20
2023-03-02T23:54:22.123Z,13.45
2023-03-02T23:56:51.753Z,13.60
2023-03-02T23:59:21.128Z,15.10
